Time;durP1;ratioP1;P1;durP2;ratioP2;P2;SDS_P1;SDS_P2;PMS_P1;PMS_P2;Temp;Humidity;BMP_temperature;BMP_pressure;BME280_temperature;BME280_humidity;BME280_pressure;Samples;Min_cycle;Max_cycle;Signal;HPM_P1;HPM_P2
2021/12/06 08:39:27;;;;;;;6.20;1.70;;;;;;;-1.47;80.82;99912.48;99983;1343;60391;-68
2021/12/06 08:42:15;;;;;;;6.70;2.00;;;;;;;-1.49;80.35;99911.16;99906;1336;75249;-65
2021/12/06 08:45:05;;;;;;;6.40;2.20;;;;;;;-1.50;79.88;99913.80;99968;1343;69486;-68
2021/12/06 08:47:55;;;;;;;6.40;2.00;;;;;;;-1.48;80.20;99918.10;99757;1343;74770;-66
2021/12/06 08:50:44;;;;;;;6.10;1.80;;;;;;;-1.49;80.15;99923.17;99800;1348;59932;-66
2021/12/06 08:53:33;;;;;;;6.00;1.60;;;;;;;-1.51;80.02;99925.48;99775;1346;60609;-66
2021/12/06 08:56:25;;;;;;;6.80;1.90;;;;;;;-1.53;80.45;99931.81;99469;1342;72869;-66
2021/12/06 08:59:16;;;;;;;6.20;2.10;;;;;;;-1.58;80.65;99927.96;99108;1346;1003151;-64
2021/12/06 09:02:06;;;;;;;6.90;2.00;;;;;;;-1.60;81.06;99932.38;99771;1349;72831;-68
2021/12/06 09:05:16;;;;;;;7.00;2.70;;;;;;;-1.61;81.32;99932.05;99629;1342;59812;-69
2021/12/06 09:08:10;;;;;;;8.00;2.70;;;;;;;-1.60;81.36;99930.11;99851;1343;59506;-67
2021/12/06 09:11:05;;;;;;;6.60;2.20;;;;;;;-1.56;81.60;99941.13;99847;1346;74293;-66
2021/12/06 09:13:57;;;;;;;7.80;2.70;;;;;;;-1.51;81.77;99944.45;99518;1348;67029;-68
2021/12/06 09:16:47;;;;;;;6.20;2.00;;;;;;;-1.50;81.84;99945.66;99707;1347;73405;-66
2021/12/06 09:19:37;;;;;;;6.80;2.60;;;;;;;-1.53;81.56;99942.95;99775;1343;59839;-67
2021/12/06 09:22:27;;;;;;;9.00;2.50;;;;;;;-1.58;81.71;99940.66;100084;1343;59741;-66
2021/12/06 09:25:21;;;;;;;9.70;2.80;;;;;;;-1.58;81.85;99943.96;99764;1343;74933;-67
2021/12/06 09:28:18;;;;;;;7.70;2.50;;;;;;;-1.54;82.27;99949.62;99930;1343;68449;-69
2021/12/06 09:31:10;;;;;;;8.00;2.40;;;;;;;-1.56;81.87;99946.00;99873;1343;73752;-72
2021/12/06 09:33:59;;;;;;;8.20;2.60;;;;;;;-1.54;82.30;99947.70;99848;1345;59735;-69
2021/12/06 09:36:47;;;;;;;8.60;2.80;;;;;;;-1.52;82.50;99945.89;99678;1345;59882;-70
2021/12/06 09:39:38;;;;;;;9.90;2.70;;;;;;;-1.51;82.18;99948.48;99844;1343;73879;-67
2021/12/06 09:42:32;;;;;;;6.90;2.60;;;;;;;-1.51;82.44;99947.95;99258;1340;1003147;-68
2021/12/06 09:45:27;;;;;;;8.10;2.60;;;;;;;-1.48;84.14;99945.05;100000;1343;71612;-68
2021/12/06 09:48:18;;;;;;;9.40;2.80;;;;;;;-1.43;82.15;99950.85;99930;1339;59859;-67
2021/12/06 09:51:17;;;;;;;8.30;3.00;;;;;;;-1.42;81.73;99952.71;100009;1343;62225;-69
2021/12/06 09:54:06;;;;;;;9.40;3.70;;;;;;;-1.40;81.67;99952.30;99233;1345;1002857;-68
2021/12/06 09:56:56;;;;;;;7.70;2.80;;;;;;;-1.40;80.86;99950.92;99737;1343;68295;-69
2021/12/06 09:59:51;;;;;;;7.40;2.60;;;;;;;-1.40;81.06;99952.30;99789;1339;73305;-68
2021/12/06 10:02:39;;;;;;;8.10;2.50;;;;;;;-1.38;80.99;99954.86;99947;1340;60026;-70
2021/12/06 10:05:29;;;;;;;7.30;2.80;;;;;;;-1.35;81.13;99950.77;99547;1346;59814;-72
2021/12/06 10:08:19;;;;;;;8.10;2.60;;;;;;;-1.33;81.11;99954.38;98812;1348;1003085;-69
2021/12/06 10:11:08;;;;;;;8.00;2.70;;;;;;;-1.33;80.63;99953.52;98935;1339;1002965;-68
2021/12/06 10:13:57;;;;;;;8.60;2.30;;;;;;;-1.42;80.67;99930.27;99614;1339;73662;-68
2021/12/06 10:16:46;;;;;;;8.40;2.30;;;;;;;-1.31;80.03;99947.88;99853;1339;59922;-68
2021/12/06 10:19:35;;;;;;;8.00;2.60;;;;;;;-1.30;79.47;99949.73;99643;1346;59826;-69
2021/12/06 10:22:26;;;;;;;6.20;2.20;;;;;;;-1.30;79.00;99950.29;99653;1346;73765;-68
2021/12/06 10:25:14;;;;;;;7.00;2.50;;;;;;;-1.30;79.18;99949.91;99626;1343;68909;-69
2021/12/06 10:28:29;;;;;;;7.50;2.20;;;;;;;-1.29;79.21;99947.13;99628;1346;74655;-71
2021/12/06 10:31:18;;;;;;;7.10;2.20;;;;;;;-1.29;78.90;99940.83;98975;1339;1003702;-70
2021/12/06 10:34:17;;;;;;;5.60;2.00;;;;;;;-1.28;78.82;99940.99;99606;1339;61258;-68
2021/12/06 10:37:05;;;;;;;7.00;2.10;;;;;;;-1.29;79.04;99937.88;100021;1336;74532;-69
2021/12/06 10:39:56;;;;;;;6.80;2.20;;;;;;;-1.26;78.62;99934.50;100198;1337;68119;-68
2021/12/06 10:42:47;;;;;;;6.30;2.40;;;;;;;-1.24;78.24;99939.64;99733;1336;74661;-67
2021/12/06 10:45:49;;;;;;;5.90;2.10;;;;;;;-1.20;78.25;99937.77;99865;1342;59800;-68
2021/12/06 10:48:39;;;;;;;6.80;2.50;;;;;;;-1.15;78.24;99944.59;99302;1344;1003580;-70
2021/12/06 10:52:38;;;;;;;8.20;2.30;;;;;;;-1.15;77.98;99942.68;100074;1340;74911;-70
2021/12/06 10:55:47;;;;;;;6.00;2.20;;;;;;;-1.20;77.63;99947.36;99603;1343;67933;-68
2021/12/06 10:58:35;;;;;;;7.30;2.30;;;;;;;-1.27;77.20;99941.99;99281;1348;73644;-70
2021/12/06 11:01:33;;;;;;;6.80;2.20;;;;;;;-1.30;77.18;99941.89;99745;1343;60257;-68
2021/12/06 11:04:28;;;;;;;7.40;2.00;;;;;;;-1.31;77.43;99944.73;99843;1343;60077;-69
2021/12/06 11:07:16;;;;;;;6.60;2.30;;;;;;;-1.32;77.47;99946.52;99515;1345;74673;-70
2021/12/06 11:10:05;;;;;;;7.30;2.20;;;;;;;-1.33;77.17;99947.24;99489;1346;68299;-68
2021/12/06 11:13:25;;;;;;;13.60;4.40;;;;;;;-1.30;77.36;99948.02;99341;1349;73016;-68
2021/12/06 11:16:20;;;;;;;6.70;1.90;;;;;;;-1.27;76.45;99951.23;99516;1342;59786;-68
2021/12/06 11:19:14;;;;;;;6.20;2.00;;;;;;;-1.27;76.17;99950.70;99350;1346;59711;-68
2021/12/06 11:22:07;;;;;;;6.80;2.30;;;;;;;-1.28;76.11;99954.38;99341;1349;75268;-68
2021/12/06 11:24:56;;;;;;;6.90;2.30;;;;;;;-1.28;76.50;99955.96;99618;1342;68859;-68
2021/12/06 11:27:47;;;;;;;6.20;1.90;;;;;;;-1.29;75.84;99950.95;99508;1348;73407;-69
2021/12/06 11:30:35;;;;;;;7.20;2.00;;;;;;;-1.30;75.93;99948.71;99613;1344;59912;-69
2021/12/06 11:33:31;;;;;;;6.80;2.30;;;;;;;-1.28;76.00;99950.05;100100;1336;59671;-72
2021/12/06 11:36:25;;;;;;;5.90;2.10;;;;;;;-1.26;76.19;99951.69;99879;1340;72259;-68
2021/12/06 11:39:20;;;;;;;7.80;2.30;;;;;;;-1.24;75.91;99950.08;100047;1340;68659;-71
2021/12/06 11:42:17;;;;;;;7.50;2.40;;;;;;;-1.26;75.42;99948.05;99970;1342;73393;-68
2021/12/06 11:45:07;;;;;;;6.20;2.20;;;;;;;-1.30;73.64;99950.96;100175;1339;59830;-68
2021/12/06 11:48:16;;;;;;;7.20;2.30;;;;;;;-1.34;72.98;99946.23;100015;1340;59823;-68
2021/12/06 11:51:16;;;;;;;6.10;1.80;;;;;;;-1.36;72.38;99952.02;100112;1340;74008;-69
2021/12/06 11:54:09;;;;;;;6.90;2.40;;;;;;;-1.40;72.08;99945.70;100252;1337;68188;-68
2021/12/06 11:57:15;;;;;;;7.20;2.30;;;;;;;-1.42;72.05;99947.52;100131;1340;73900;-71
2021/12/06 12:00:20;;;;;;;6.50;1.80;;;;;;;-1.46;70.92;99946.41;99961;1339;59762;-68
2021/12/06 12:03:12;;;;;;;6.10;2.00;;;;;;;-1.51;71.28;99947.08;99851;1337;59672;-71
2021/12/06 12:06:20;;;;;;;6.50;1.90;;;;;;;-1.57;71.30;99947.93;99470;1337;1003941;-69
2021/12/06 12:09:41;;;;;;;7.40;1.80;;;;;;;-1.60;71.85;99947.01;99991;1340;67423;-70
2021/12/06 12:12:30;;;;;;;6.60;2.00;;;;;;;-1.60;71.99;99950.13;99814;1339;73760;-68
2021/12/06 12:15:21;;;;;;;6.20;1.90;;;;;;;-1.60;71.95;99952.54;99702;1343;59657;-70
2021/12/06 12:18:10;;;;;;;7.70;2.50;;;;;;;-1.58;71.70;99950.92;99725;1340;59739;-70
2021/12/06 12:21:16;;;;;;;6.70;2.00;;;;;;;-1.58;71.78;99949.38;100066;1337;73398;-70
2021/12/06 12:24:07;;;;;;;6.00;2.20;;;;;;;-1.60;71.63;99960.94;99813;1344;68917;-68
2021/12/06 12:27:15;;;;;;;7.20;2.20;;;;;;;-1.62;72.74;99959.05;99998;1343;74363;-72
2021/12/06 12:30:08;;;;;;;6.30;1.90;;;;;;;-1.61;72.76;99959.55;99947;1340;59741;-71
2021/12/06 12:33:09;;;;;;;6.60;2.30;;;;;;;-1.63;72.47;99957.68;100243;1336;60682;-70
2021/12/06 12:36:10;;;;;;;5.90;1.90;;;;;;;-1.66;72.50;99959.54;99921;1339;74776;-69
2021/12/06 12:39:17;;;;;;;6.20;2.00;;;;;;;-1.70;72.45;99954.23;99971;1337;65854;-72
2021/12/06 12:42:23;;;;;;;6.30;1.50;;;;;;;-1.74;72.27;99949.64;99318;1339;1002997;-69
2021/12/06 12:45:50;;;;;;;6.00;1.80;;;;;;;-1.77;73.13;99947.65;100461;1343;59857;-70
2021/12/06 12:49:09;;;;;;;6.40;1.90;;;;;;;-1.79;73.33;99947.20;99019;1345;1003720;-69
2021/12/06 12:52:09;;;;;;;8.30;2.30;;;;;;;-1.81;73.90;99946.39;99824;1343;73210;-69
2021/12/06 12:55:37;;;;;;;8.00;2.50;;;;;;;-1.83;73.13;99941.05;99823;1346;69780;-69
2021/12/06 12:58:35;;;;;;;6.90;1.90;;;;;;;-1.83;73.29;99939.83;99839;1346;73008;-68
2021/12/06 13:01:29;;;;;;;7.20;2.00;;;;;;;-1.84;73.32;99935.16;99464;1347;59823;-69
2021/12/06 13:04:22;;;;;;;7.30;2.00;;;;;;;-1.84;73.18;99936.92;99512;1340;59781;-66
2021/12/06 13:07:21;;;;;;;6.50;2.10;;;;;;;-1.87;73.32;99939.08;98862;1346;1003058;-69
2021/12/06 13:10:40;;;;;;;8.50;2.20;;;;;;;-1.90;73.25;99940.54;98745;1348;1003756;-69
2021/12/06 13:13:44;;;;;;;6.80;2.20;;;;;;;-1.94;73.27;99938.59;99368;1349;74511;-69
2021/12/06 13:16:59;;;;;;;6.30;2.20;;;;;;;-1.99;72.67;99934.89;99319;1349;59714;-69
2021/12/06 13:20:27;;;;;;;8.10;2.50;;;;;;;-2.02;73.43;99930.45;99221;1342;59769;-69
2021/12/06 13:23:33;;;;;;;7.40;2.80;;;;;;;-2.05;73.25;99940.97;99623;1346;73984;-69
2021/12/06 13:26:36;;;;;;;8.40;3.00;;;;;;;-2.07;73.35;99942.25;99515;1342;66768;-69
2021/12/06 13:30:27;;;;;;;10.50;3.00;;;;;;;-2.03;73.55;99943.01;99410;1348;75547;-68
2021/12/06 13:33:38;;;;;;;7.50;2.60;;;;;;;-1.98;72.44;99939.91;99460;1346;269689;-70
2021/12/06 13:37:21;;;;;;;7.80;2.90;;;;;;;-1.97;72.94;99941.60;99338;1351;61944;-68
2021/12/06 13:40:26;;;;;;;7.20;2.50;;;;;;;-1.92;72.94;99944.24;99705;1354;74928;-70
2021/12/06 13:43:24;;;;;;;8.20;2.60;;;;;;;-1.92;72.68;99946.52;99416;1355;67962;-68
2021/12/06 13:46:44;;;;;;;8.10;2.40;;;;;;;-1.94;72.04;99948.32;99301;1348;73042;-68
2021/12/06 13:49:55;;;;;;;7.50;2.40;;;;;;;-2.01;71.25;99948.50;99205;1354;59902;-70
2021/12/06 13:52:51;;;;;;;8.10;2.60;;;;;;;-2.07;70.98;99952.14;99013;1349;60093;-69
2021/12/06 13:55:51;;;;;;;8.00;2.50;;;;;;;-2.11;71.18;99952.59;99487;1348;73563;-70
2021/12/06 13:58:48;;;;;;;7.00;3.00;;;;;;;-2.13;71.61;99951.10;99115;1354;68749;-71
2021/12/06 14:02:03;;;;;;;7.70;2.20;;;;;;;-2.13;72.43;99957.53;98862;1354;74456;-69
2021/12/06 14:04:57;;;;;;;10.40;2.70;;;;;;;-2.14;71.43;99961.36;98850;1353;60154;-70
2021/12/06 14:08:29;;;;;;;8.50;2.50;;;;;;;-2.14;71.52;99970.42;99085;1354;59673;-71
2021/12/06 14:11:30;;;;;;;7.60;2.40;;;;;;;-2.14;71.55;99971.28;99405;1346;73421;-69
2021/12/06 14:14:41;;;;;;;6.30;2.20;;;;;;;-2.14;70.39;99968.68;99521;1348;68322;-69
2021/12/06 14:17:35;;;;;;;7.10;1.70;;;;;;;-2.17;69.37;99961.98;99540;1347;72933;-70
2021/12/06 14:20:30;;;;;;;5.60;1.70;;;;;;;-2.21;69.15;99958.77;99763;1345;59801;-70
2021/12/06 14:23:26;;;;;;;5.80;2.00;;;;;;;-2.26;69.09;99962.20;99894;1342;60849;-70
2021/12/06 14:26:19;;;;;;;7.70;2.50;;;;;;;-2.28;69.62;99966.10;99595;1346;75006;-69
2021/12/06 14:29:40;;;;;;;6.20;1.90;;;;;;;-2.30;69.99;99967.70;99745;1346;68258;-69
2021/12/06 14:33:05;;;;;;;6.40;1.90;;;;;;;-2.34;70.37;99970.42;98853;1342;1003334;-68
2021/12/06 14:36:12;;;;;;;7.30;1.70;;;;;;;-2.38;70.07;99970.70;98680;1345;1003568;-70
2021/12/06 14:39:56;;;;;;;5.10;1.70;;;;;;;-2.37;70.99;99973.62;99746;1342;60467;-70
2021/12/06 14:43:21;;;;;;;7.00;2.40;;;;;;;-2.35;70.99;99972.02;99570;1345;73387;-70
2021/12/06 14:46:13;;;;;;;7.60;2.70;;;;;;;-2.33;71.86;99973.19;99267;1351;68792;-69
2021/12/06 14:49:13;;;;;;;7.70;3.70;;;;;;;-2.32;71.76;99974.72;99343;1348;73534;-69
2021/12/06 14:52:25;;;;;;;7.20;2.70;;;;;;;-2.33;71.57;99975.43;98411;1352;1002911;-70
2021/12/06 14:55:58;;;;;;;8.00;3.10;;;;;;;-2.34;71.91;99975.48;99410;1355;59654;-70
2021/12/06 14:59:31;;;;;;;6.60;2.00;;;;;;;-2.40;70.69;99974.40;99239;1348;73639;-69
2021/12/06 15:02:53;;;;;;;7.80;1.90;;;;;;;-2.47;70.09;99971.80;98696;1353;1003908;-70
2021/12/06 15:06:11;;;;;;;5.80;1.80;;;;;;;-2.51;70.13;99970.17;99459;1348;73176;-70
2021/12/06 15:09:30;;;;;;;4.70;1.40;;;;;;;-2.53;70.78;99974.04;99502;1349;59880;-70
2021/12/06 15:12:41;;;;;;;5.10;1.40;;;;;;;-2.54;70.17;99972.49;99369;1351;60924;-70
2021/12/06 15:15:44;;;;;;;4.80;1.10;;;;;;;-2.55;70.24;99977.75;98654;1348;1003018;-69
2021/12/06 15:18:41;;;;;;;6.20;2.10;;;;;;;-2.57;70.98;99976.22;99071;1351;68375;-68
2021/12/06 15:21:39;;;;;;;7.20;2.10;;;;;;;-2.56;71.29;99979.50;99365;1348;73109;-71
2021/12/06 15:24:54;;;;;;;9.90;2.70;;;;;;;-2.54;71.91;99981.55;99234;1351;59773;-68
2021/12/06 15:28:08;;;;;;;11.30;3.80;;;;;;;-2.52;72.39;99982.89;98984;1357;60587;-67
2021/12/06 15:31:10;;;;;;;11.30;3.10;;;;;;;-2.51;72.67;99981.29;98912;1356;74007;-68
2021/12/06 15:34:27;;;;;;;15.70;4.40;;;;;;;-2.50;73.16;99980.23;99293;1352;70204;-69
2021/12/06 15:37:46;;;;;;;13.60;4.10;;;;;;;-2.47;73.19;99984.66;99487;1351;71557;-70
2021/12/06 15:41:04;;;;;;;16.60;5.10;;;;;;;-2.44;72.82;99990.48;99703;1351;59861;-71
2021/12/06 15:44:41;;;;;;;14.00;4.10;;;;;;;-2.42;73.29;99995.83;99867;1352;61360;-69
2021/12/06 15:47:46;;;;;;;14.40;3.90;;;;;;;-2.39;73.64;99998.35;99442;1348;72839;-69
2021/12/06 15:50:56;;;;;;;13.50;3.70;;;;;;;-2.37;72.92;100003.02;98943;1351;68734;-68
2021/12/06 15:54:21;;;;;;;13.80;4.40;;;;;;;-2.38;72.75;100000.09;98555;1354;72142;-69
2021/12/06 15:57:30;;;;;;;10.40;2.70;;;;;;;-2.41;72.34;99992.33;99096;1352;59789;-70
2021/12/06 16:00:46;;;;;;;11.00;3.40;;;;;;;-2.45;72.01;99991.40;99024;1358;60057;-69
2021/12/06 16:03:51;;;;;;;9.70;2.80;;;;;;;-2.49;71.77;99990.62;99341;1348;75001;-69
2021/12/06 16:06:57;;;;;;;10.90;3.10;;;;;;;-2.50;72.13;99989.94;99092;1360;68678;-73
2021/12/06 16:10:25;;;;;;;12.20;3.10;;;;;;;-2.48;72.43;99989.02;99090;1358;74662;-69
2021/12/06 16:13:45;;;;;;;14.70;3.20;;;;;;;-2.44;71.92;99986.85;99270;1355;59756;-70
2021/12/06 16:17:02;;;;;;;15.20;3.40;;;;;;;-2.42;71.77;99984.55;99166;1345;60566;-70
2021/12/06 16:20:14;;;;;;;11.00;3.00;;;;;;;-2.43;71.42;99986.98;99458;1351;75134;-70
2021/12/06 16:23:46;;;;;;;9.70;2.80;;;;;;;-2.42;71.07;99985.73;99120;1351;67059;-69
2021/12/06 16:27:00;;;;;;;9.90;3.00;;;;;;;-2.43;71.07;99987.15;98335;1351;1003033;-69
2021/12/06 16:30:19;;;;;;;9.70;3.20;;;;;;;-2.45;71.39;99992.08;98215;1351;1003180;-69
2021/12/06 16:33:50;;;;;;;9.30;2.70;;;;;;;-2.49;71.03;99993.03;99489;1348;61049;-72
2021/12/06 16:37:21;;;;;;;7.10;2.10;;;;;;;-2.53;69.36;99994.37;99714;1346;73403;-67
2021/12/06 16:40:41;;;;;;;7.00;2.00;;;;;;;-2.57;69.48;99990.63;98010;1348;1003286;-67
2021/12/06 16:44:07;;;;;;;5.70;1.90;;;;;;;-2.57;69.19;99993.42;99147;1345;1002772;-68
2021/12/06 16:47:37;;;;;;;7.70;2.10;;;;;;;-2.58;68.37;99987.19;100229;1345;59833;-70
2021/12/06 16:50:47;;;;;;;7.30;2.40;;;;;;;-2.56;69.25;99988.71;99269;1345;1003134;-68
2021/12/06 16:54:27;;;;;;;7.40;2.50;;;;;;;-2.53;69.71;99989.67;99712;1343;73960;-70
2021/12/06 16:57:26;;;;;;;11.30;3.60;;;;;;;-2.53;69.72;99998.36;99755;1345;69732;-67
2021/12/06 17:01:17;;;;;;;8.30;2.50;;;;;;;-2.53;69.72;100004.97;99612;1346;72432;-69
2021/12/06 17:04:19;;;;;;;11.30;4.10;;;;;;;-2.56;69.67;99999.30;99353;1348;60117;-67
2021/12/06 17:07:40;;;;;;;9.30;3.20;;;;;;;-2.55;70.65;99999.10;99534;1349;61253;-73
2021/12/06 17:11:08;;;;;;;8.50;2.80;;;;;;;-2.51;70.34;99996.42;98887;1345;1002880;-69
2021/12/06 17:14:17;;;;;;;9.10;2.40;;;;;;;-2.50;70.81;99995.33;99744;1348;68041;-68
2021/12/06 17:17:23;;;;;;;8.10;2.60;;;;;;;-2.50;70.07;100000.02;99400;1348;74181;-70
2021/12/06 17:20:59;;;;;;;8.10;2.90;;;;;;;-2.52;70.16;100000.09;98513;1352;1002901;-68
2021/12/06 17:23:56;;;;;;;10.30;3.20;;;;;;;-2.52;70.40;99996.09;99471;1352;60298;-71
2021/12/06 17:27:05;;;;;;;7.10;2.70;;;;;;;-2.51;70.60;99994.13;99254;1353;74879;-69
2021/12/06 17:30:11;;;;;;;7.90;2.20;;;;;;;-2.51;70.26;99994.65;99493;1345;67230;-72
2021/12/06 17:33:11;;;;;;;8.10;2.40;;;;;;;-2.50;70.46;99990.62;98210;1348;1003420;-70
2021/12/06 17:36:07;;;;;;;6.80;2.00;;;;;;;-2.50;70.69;99994.48;99849;1336;59771;-69
2021/12/06 17:39:00;;;;;;;8.40;2.10;;;;;;;-2.50;71.21;99995.16;99783;1337;60733;-69
2021/12/06 17:42:10;;;;;;;8.30;2.40;;;;;;;-2.50;71.43;99996.88;99941;1339;73231;-70
2021/12/06 17:45:23;;;;;;;6.40;2.20;;;;;;;-2.48;70.59;99995.29;99939;1342;69772;-70
2021/12/06 17:48:30;;;;;;;6.00;1.90;;;;;;;-2.50;70.23;99993.76;99919;1342;71225;-72
2021/12/06 17:51:57;;;;;;;10.50;3.00;;;;;;;-2.50;70.70;99994.48;99872;1343;59621;-71
2021/12/06 17:55:14;;;;;;;6.60;2.40;;;;;;;-2.53;70.83;99995.23;99723;1340;60560;-71
2021/12/06 17:58:38;;;;;;;7.70;2.70;;;;;;;-2.55;71.07;99988.86;99516;1348;72005;-68
2021/12/06 18:01:59;;;;;;;8.00;2.20;;;;;;;-2.54;71.39;99987.96;99381;1348;68824;-69
2021/12/06 18:05:14;;;;;;;9.20;2.50;;;;;;;-2.55;70.93;99982.77;99219;1351;72435;-70
2021/12/06 18:08:24;;;;;;;7.60;2.30;;;;;;;-2.55;71.10;99984.70;99270;1353;61342;-68
2021/12/06 18:11:25;;;;;;;6.50;2.20;;;;;;;-2.54;70.93;99986.23;99093;1345;61966;-68
2021/12/06 18:14:28;;;;;;;7.10;2.20;;;;;;;-2.52;70.52;99987.58;99417;1351;73533;-69
2021/12/06 18:17:31;;;;;;;6.80;2.10;;;;;;;-2.48;70.85;99983.30;99424;1351;69861;-68
2021/12/06 18:20:31;;;;;;;6.80;2.30;;;;;;;-2.48;70.40;99978.27;99279;1345;74594;-69
2021/12/06 18:23:48;;;;;;;5.90;1.80;;;;;;;-2.44;69.41;99983.70;99311;1349;59680;-68
2021/12/06 18:26:52;;;;;;;5.90;1.90;;;;;;;-2.49;67.87;99984.52;99177;1348;60491;-68
2021/12/06 18:30:01;;;;;;;5.60;1.70;;;;;;;-2.51;68.72;99981.30;99123;1348;76068;-70
2021/12/06 18:33:10;;;;;;;6.10;2.00;;;;;;;-2.53;68.77;99982.20;99543;1348;68699;-69
2021/12/06 18:36:37;;;;;;;5.70;1.70;;;;;;;-2.53;68.96;99983.75;99488;1342;73635;-69
2021/12/06 18:40:02;;;;;;;9.80;3.00;;;;;;;-2.53;68.96;99981.69;99797;1343;59777;-70
2021/12/06 18:43:36;;;;;;;8.60;2.90;;;;;;;-2.51;69.52;99985.99;99323;1346;60721;-68
2021/12/06 18:46:31;;;;;;;8.80;3.20;;;;;;;-2.50;70.19;99985.61;99842;1345;75057;-68
2021/12/06 18:49:47;;;;;;;8.30;2.60;;;;;;;-2.50;70.18;99984.38;99444;1342;66634;-71
2021/12/06 18:53:05;;;;;;;9.80;3.10;;;;;;;-2.47;70.06;99982.76;99257;1348;72928;-70
2021/12/06 18:55:54;;;;;;;9.50;2.80;;;;;;;-2.44;70.22;99979.36;98852;1342;1003690;-71
2021/12/06 18:58:43;;;;;;;9.20;2.90;;;;;;;-2.40;70.32;99979.10;99367;1348;61175;-66
2021/12/06 19:01:34;;;;;;;5.70;1.90;;;;;;;-2.43;69.34;99971.86;99368;1342;74441;-67
2021/12/06 19:04:24;;;;;;;7.00;2.10;;;;;;;-2.46;69.46;99967.77;98712;1345;1003192;-69
2021/12/06 19:07:12;;;;;;;6.90;2.20;;;;;;;-2.47;69.97;99970.41;99438;1348;71751;-70
2021/12/06 19:10:00;;;;;;;7.60;2.40;;;;;;;-2.48;69.87;99974.60;99506;1342;59850;-69
2021/12/06 19:12:49;;;;;;;6.80;2.20;;;;;;;-2.49;70.10;99974.46;99528;1342;59641;-72
2021/12/06 19:15:41;;;;;;;8.50;2.60;;;;;;;-2.48;70.44;99974.96;99902;1337;73809;-69
2021/12/06 19:18:31;;;;;;;5.60;1.90;;;;;;;-2.47;70.65;99977.00;99793;1339;66978;-70
2021/12/06 19:21:27;;;;;;;7.30;2.30;;;;;;;-2.48;70.02;99973.22;100024;1343;74357;-70
2021/12/06 19:24:17;;;;;;;5.80;1.80;;;;;;;-2.52;69.91;99970.70;100106;1337;59698;-70
2021/12/06 19:27:08;;;;;;;6.00;2.00;;;;;;;-2.55;70.18;99976.16;99464;1344;1003098;-68
2021/12/06 19:29:57;;;;;;;7.00;2.50;;;;;;;-2.56;70.28;99974.63;100331;1343;72404;-68
2021/12/06 19:32:55;;;;;;;6.40;2.10;;;;;;;-2.57;70.44;99973.27;99802;1342;68931;-69
2021/12/06 19:35:48;;;;;;;7.50;2.10;;;;;;;-2.59;70.71;99974.71;100021;1339;73257;-71
2021/12/06 19:38:40;;;;;;;5.80;1.70;;;;;;;-2.56;71.03;99973.41;99841;1337;59767;-70
2021/12/06 19:41:28;;;;;;;6.70;2.10;;;;;;;-2.54;70.57;99974.07;99988;1340;60678;-71
2021/12/06 19:44:17;;;;;;;9.00;2.50;;;;;;;-2.54;71.09;99967.46;100072;1337;73255;-69
2021/12/06 19:47:11;;;;;;;6.20;1.70;;;;;;;-2.54;70.97;99967.81;100247;1337;66947;-69
2021/12/06 19:50:04;;;;;;;9.20;2.60;;;;;;;-2.55;71.10;99964.52;100206;1337;72611;-71
2021/12/06 19:52:53;;;;;;;5.30;1.70;;;;;;;-2.54;70.70;99960.33;99816;1343;60160;-71
2021/12/06 19:55:47;;;;;;;7.10;1.80;;;;;;;-2.55;70.36;99959.15;100089;1337;60418;-68
2021/12/06 19:58:37;;;;;;;8.30;2.20;;;;;;;-2.59;69.97;99960.98;100194;1343;73067;-68
2021/12/06 20:01:27;;;;;;;8.90;2.20;;;;;;;-2.63;69.23;99958.46;99970;1337;68235;-72
2021/12/06 20:04:18;;;;;;;6.90;2.20;;;;;;;-2.66;68.71;99958.90;99897;1336;72840;-69
2021/12/06 20:07:09;;;;;;;8.60;2.30;;;;;;;-2.68;68.97;99963.66;99695;1339;60042;-68
2021/12/06 20:09:58;;;;;;;6.70;2.40;;;;;;;-2.69;69.66;99962.44;99894;1340;59759;-70
2021/12/06 20:12:46;;;;;;;7.40;2.40;;;;;;;-2.66;70.39;99962.21;100019;1339;73404;-72
2021/12/06 20:15:37;;;;;;;10.10;2.90;;;;;;;-2.63;69.91;99963.87;99820;1342;66929;-70
2021/12/06 20:18:27;;;;;;;9.50;2.40;;;;;;;-2.62;70.28;99966.27;99804;1339;71316;-67
2021/12/06 20:21:16;;;;;;;8.40;2.60;;;;;;;-2.58;70.54;99960.09;99469;1337;1003577;-70
2021/12/06 20:24:05;;;;;;;8.20;2.20;;;;;;;-2.56;70.34;99957.79;99864;1342;59631;-69
2021/12/06 20:26:53;;;;;;;8.00;2.50;;;;;;;-2.57;70.31;99955.71;99238;1340;1003570;-69
2021/12/06 20:29:43;;;;;;;7.80;2.50;;;;;;;-2.55;70.84;99955.34;99895;1337;67944;-69
2021/12/06 20:32:33;;;;;;;7.50;2.80;;;;;;;-2.56;71.03;99947.88;100180;1336;73619;-68
2021/12/06 20:35:21;;;;;;;7.40;1.80;;;;;;;-2.55;70.94;99949.26;100005;1336;59641;-68
2021/12/06 20:38:12;;;;;;;8.60;1.90;;;;;;;-2.56;71.55;99951.16;99817;1339;59686;-68
2021/12/06 20:41:02;;;;;;;6.30;1.90;;;;;;;-2.55;71.18;99948.38;99811;1339;74892;-69
2021/12/06 20:43:51;;;;;;;6.80;2.40;;;;;;;-2.57;71.32;99946.88;99876;1342;68846;-69
2021/12/06 20:46:41;;;;;;;10.20;2.50;;;;;;;-2.59;70.99;99949.33;99873;1337;73613;-69
2021/12/06 20:49:29;;;;;;;11.20;2.50;;;;;;;-2.57;70.52;99950.16;100082;1337;59918;-67
2021/12/06 20:52:19;;;;;;;12.30;3.20;;;;;;;-2.57;70.37;99945.11;99936;1343;60699;-67
2021/12/06 20:55:09;;;;;;;7.80;2.20;;;;;;;-2.58;69.45;99942.21;99890;1336;73747;-68
2021/12/06 20:57:58;;;;;;;7.60;1.60;;;;;;;-2.64;68.80;99941.30;99755;1339;67066;-67
2021/12/06 21:00:49;;;;;;;7.00;1.80;;;;;;;-2.69;68.77;99940.90;100138;1339;73076;-66
2021/12/06 21:03:37;;;;;;;5.60;1.90;;;;;;;-2.72;69.12;99939.78;100277;1342;59821;-69
2021/12/06 21:06:26;;;;;;;6.00;1.80;;;;;;;-2.72;69.71;99937.70;99791;1339;60686;-68
2021/12/06 21:09:19;;;;;;;7.30;2.00;;;;;;;-2.71;69.81;99941.84;99692;1339;74000;-68
2021/12/06 21:12:58;;;;;;;7.70;2.50;;;;;;;-2.71;69.99;99934.54;99993;1340;67059;-69
2021/12/06 21:18:12;;;;;;;9.40;3.10;;;;;;;-2.75;69.56;99929.93;99941;1340;59864;-67
2021/12/06 21:21:03;;;;;;;9.00;2.50;;;;;;;-2.75;69.81;99929.41;100076;1336;59698;-66
2021/12/06 21:23:52;;;;;;;13.50;2.80;;;;;;;-2.75;69.74;99927.16;100083;1340;72690;-67
2021/12/06 21:26:42;;;;;;;8.10;2.50;;;;;;;-2.72;70.24;99930.58;99891;1340;69119;-69
2021/12/06 21:29:31;;;;;;;9.60;2.10;;;;;;;-2.70;69.97;99929.13;100040;1340;71337;-69
2021/12/06 21:32:21;;;;;;;7.70;1.90;;;;;;;-2.70;70.17;99928.45;98533;1336;2671979;-66
2021/12/06 21:35:11;;;;;;;6.80;1.80;;;;;;;-2.70;70.27;99926.19;99660;1340;1003068;-67
2021/12/06 21:38:02;;;;;;;7.30;2.40;;;;;;;-2.71;70.47;99922.20;99216;1336;1003916;-68
2021/12/06 21:40:51;;;;;;;8.90;2.10;;;;;;;-2.73;69.77;99923.65;100010;1337;68894;-68
2021/12/06 21:43:40;;;;;;;7.10;2.00;;;;;;;-2.75;70.48;99930.64;99197;1339;1003133;-69
2021/12/06 21:46:32;;;;;;;8.50;2.30;;;;;;;-2.78;70.09;99931.41;100249;1337;59718;-67
2021/12/06 21:49:20;;;;;;;8.20;1.60;;;;;;;-2.82;70.03;99925.77;99976;1342;60959;-68
2021/12/06 21:52:09;;;;;;;7.50;2.00;;;;;;;-2.85;70.09;99919.59;100045;1336;72321;-66
2021/12/06 21:54:58;;;;;;;7.20;1.60;;;;;;;-2.87;70.35;99922.95;100173;1337;68543;-69
2021/12/06 21:57:48;;;;;;;5.60;1.70;;;;;;;-2.89;70.59;99919.52;99929;1337;73616;-67
2021/12/06 22:00:46;;;;;;;6.00;1.50;;;;;;;-2.93;70.85;99908.85;100146;1337;59930;-67
2021/12/06 22:03:51;;;;;;;6.20;1.70;;;;;;;-2.89;71.27;99918.13;98995;1339;1003757;-68
2021/12/06 22:06:41;;;;;;;6.10;1.80;;;;;;;-2.88;72.18;99920.55;99737;1342;73445;-68
2021/12/06 22:09:29;;;;;;;8.20;1.70;;;;;;;-2.86;71.87;99919.79;99769;1339;66962;-66
2021/12/06 22:12:18;;;;;;;6.40;1.80;;;;;;;-2.87;71.82;99921.93;99628;1340;74037;-69
2021/12/06 22:15:10;;;;;;;7.30;1.80;;;;;;;-2.92;72.06;99925.33;99004;1340;1003696;-68
2021/12/06 22:17:59;;;;;;;6.10;1.70;;;;;;;-2.94;72.54;99928.15;99618;1342;59927;-68
2021/12/06 22:20:48;;;;;;;5.60;1.40;;;;;;;-2.94;72.94;99933.19;99819;1343;73993;-68
2021/12/06 22:23:39;;;;;;;5.30;1.60;;;;;;;-2.96;73.19;99933.95;99552;1342;69065;-69
2021/12/06 22:26:28;;;;;;;5.90;2.00;;;;;;;-2.95;73.30;99933.02;99690;1339;73653;-70
2021/12/06 22:29:17;;;;;;;6.70;1.80;;;;;;;-2.94;72.71;99930.95;99577;1343;59779;-67
2021/12/06 22:32:06;;;;;;;6.10;1.80;;;;;;;-2.97;72.77;99932.90;99603;1339;59615;-67
2021/12/06 22:35:06;;;;;;;6.10;1.80;;;;;;;-2.98;72.40;99930.86;99435;1344;73985;-67
2021/12/06 22:37:55;;;;;;;6.00;1.90;;;;;;;-3.04;71.26;99929.45;99022;1339;1003049;-69
2021/12/06 22:40:46;;;;;;;6.00;1.90;;;;;;;-3.08;71.96;99928.81;100033;1342;74606;-67
2021/12/06 22:43:35;;;;;;;5.90;1.90;;;;;;;-3.09;71.47;99933.72;99810;1337;59881;-66
2021/12/06 22:46:25;;;;;;;6.20;1.80;;;;;;;-3.12;71.37;99937.23;100087;1337;59788;-66
2021/12/06 22:49:15;;;;;;;5.70;1.80;;;;;;;-3.14;70.95;99935.23;99735;1340;73515;-65